sensor_id;sensor_type;location;lat;lon;timestamp;temperature;humidity
56542;DHT22;42438;53.174;6.730;2023-02-23T00:01:57;6.80;99.90
56542;DHT22;42438;53.174;6.730;2023-02-23T00:04:35;6.80;99.90
56542;DHT22;42438;53.174;6.730;2023-02-23T00:07:07;6.90;99.90
56542;DHT22;42438;53.174;6.730;2023-02-23T00:09:38;7.10;99.90
56542;DHT22;42438;53.174;6.730;2023-02-23T00:12:09;7.10;99.90
56542;DHT22;42438;53.174;6.730;2023-02-23T00:14:40;6.90;99.90
56542;DHT22;42438;53.174;6.730;2023-02-23T00:17:10;6.90;99.90
56542;DHT22;42438;53.174;6.730;2023-02-23T00:19:46;7.20;99.90
56542;DHT22;42438;53.174;6.730;2023-02-23T00:22:18;6.80;99.90
56542;DHT22;42438;53.174;6.730;2023-02-23T00:24:49;6.80;99.90
56542;DHT22;42438;53.174;6.730;2023-02-23T00:27:19;7.00;99.90
56542;DHT22;42438;53.174;6.730;2023-02-23T00:29:51;6.90;99.90
56542;DHT22;42438;53.174;6.730;2023-02-23T00:32:22;7.00;99.90
56542;DHT22;42438;53.174;6.730;2023-02-23T00:34:53;7.10;99.90
56542;DHT22;42438;53.174;6.730;2023-02-23T00:37:23;6.80;99.90
56542;DHT22;42438;53.174;6.730;2023-02-23T00:39:55;7.00;99.90
56542;DHT22;42438;53.174;6.730;2023-02-23T00:42:26;6.80;99.90
56542;DHT22;42438;53.174;6.730;2023-02-23T00:45:01;6.80;99.90
56542;DHT22;42438;53.174;6.730;2023-02-23T00:47:42;6.80;99.90
56542;DHT22;42438;53.174;6.730;2023-02-23T00:50:15;7.10;99.90
56542;DHT22;42438;53.174;6.730;2023-02-23T00:52:46;6.80;99.90
56542;DHT22;42438;53.174;6.730;2023-02-23T00:55:16;7.10;99.90
56542;DHT22;42438;53.174;6.730;2023-02-23T00:57:47;7.00;99.90
56542;DHT22;42438;53.174;6.730;2023-02-23T01:00:18;7.00;99.90
56542;DHT22;42438;53.174;6.730;2023-02-23T01:02:49;6.90;99.90
56542;DHT22;42438;53.174;6.730;2023-02-23T01:05:20;6.90;99.90
56542;DHT22;42438;53.174;6.730;2023-02-23T01:07:51;6.80;99.90
56542;DHT22;42438;53.174;6.730;2023-02-23T01:10:22;7.00;99.90
56542;DHT22;42438;53.174;6.730;2023-02-23T01:12:53;6.80;99.90
56542;DHT22;42438;53.174;6.730;2023-02-23T01:15:24;6.80;99.90
56542;DHT22;42438;53.174;6.730;2023-02-23T01:17:55;6.80;99.90
56542;DHT22;42438;53.174;6.730;2023-02-23T01:20:35;6.80;99.90
56542;DHT22;42438;53.174;6.730;2023-02-23T01:23:09;6.90;99.90
56542;DHT22;42438;53.174;6.730;2023-02-23T01:25:44;7.00;99.90
56542;DHT22;42438;53.174;6.730;2023-02-23T01:28:14;6.80;99.90
56542;DHT22;42438;53.174;6.730;2023-02-23T01:30:45;7.00;99.90
56542;DHT22;42438;53.174;6.730;2023-02-23T01:33:16;7.00;99.90
56542;DHT22;42438;53.174;6.730;2023-02-23T01:35:57;6.90;99.90
56542;DHT22;42438;53.174;6.730;2023-02-23T01:38:27;7.00;99.90
56542;DHT22;42438;53.174;6.730;2023-02-23T01:40:58;7.10;99.90
56542;DHT22;42438;53.174;6.730;2023-02-23T01:43:29;7.00;99.90
56542;DHT22;42438;53.174;6.730;2023-02-23T01:46:00;7.10;99.90
56542;DHT22;42438;53.174;6.730;2023-02-23T01:48:36;7.10;99.90
56542;DHT22;42438;53.174;6.730;2023-02-23T01:51:14;7.10;99.90
56542;DHT22;42438;53.174;6.730;2023-02-23T01:53:55;6.90;99.90
56542;DHT22;42438;53.174;6.730;2023-02-23T01:56:32;6.90;99.90
56542;DHT22;42438;53.174;6.730;2023-02-23T01:59:05;6.90;99.90
56542;DHT22;42438;53.174;6.730;2023-02-23T02:01:41;7.20;99.90
56542;DHT22;42438;53.174;6.730;2023-02-23T02:04:12;6.90;99.90
56542;DHT22;42438;53.174;6.730;2023-02-23T02:06:47;7.20;99.90
56542;DHT22;42438;53.174;6.730;2023-02-23T02:09:23;7.20;99.90
56542;DHT22;42438;53.174;6.730;2023-02-23T02:11:57;7.30;99.90
56542;DHT22;42438;53.174;6.730;2023-02-23T02:14:29;7.20;99.90
56542;DHT22;42438;53.174;6.730;2023-02-23T02:34:21;7.00;99.90
56542;DHT22;42438;53.174;6.730;2023-02-23T02:40:13;7.00;99.90
56542;DHT22;42438;53.174;6.730;2023-02-23T02:43:10;7.20;99.90
56542;DHT22;42438;53.174;6.730;2023-02-23T02:56:40;7.10;99.90
56542;DHT22;42438;53.174;6.730;2023-02-23T02:59:15;7.00;99.90
56542;DHT22;42438;53.174;6.730;2023-02-23T03:02:06;7.10;99.90
56542;DHT22;42438;53.174;6.730;2023-02-23T03:04:55;7.00;99.90
56542;DHT22;42438;53.174;6.730;2023-02-23T03:07:58;7.10;99.90
56542;DHT22;42438;53.174;6.730;2023-02-23T03:11:07;6.90;99.90
56542;DHT22;42438;53.174;6.730;2023-02-23T03:17:03;7.10;99.90
56542;DHT22;42438;53.174;6.730;2023-02-23T03:20:17;7.00;99.90
56542;DHT22;42438;53.174;6.730;2023-02-23T03:26:31;7.10;99.90
56542;DHT22;42438;53.174;6.730;2023-02-23T03:32:58;6.90;99.90
56542;DHT22;42438;53.174;6.730;2023-02-23T03:36:13;7.20;99.90
56542;DHT22;42438;53.174;6.730;2023-02-23T03:39:11;7.20;99.90
56542;DHT22;42438;53.174;6.730;2023-02-23T03:42:06;7.00;99.90
56542;DHT22;42438;53.174;6.730;2023-02-23T03:44:58;6.90;99.90
56542;DHT22;42438;53.174;6.730;2023-02-23T03:47:52;7.20;99.90
56542;DHT22;42438;53.174;6.730;2023-02-23T03:50:46;7.10;99.90
56542;DHT22;42438;53.174;6.730;2023-02-23T03:54:03;7.20;99.90
56542;DHT22;42438;53.174;6.730;2023-02-23T03:56:56;6.90;99.90
56542;DHT22;42438;53.174;6.730;2023-02-23T03:59:51;6.90;99.90
56542;DHT22;42438;53.174;6.730;2023-02-23T04:02:46;7.00;99.90
56542;DHT22;42438;53.174;6.730;2023-02-23T04:05:38;7.00;99.90
56542;DHT22;42438;53.174;6.730;2023-02-23T04:08:33;6.90;99.90
56542;DHT22;42438;53.174;6.730;2023-02-23T04:11:45;7.10;99.90
56542;DHT22;42438;53.174;6.730;2023-02-23T04:14:46;7.10;99.90
56542;DHT22;42438;53.174;6.730;2023-02-23T04:17:19;7.20;99.90
56542;DHT22;42438;53.174;6.730;2023-02-23T04:19:52;6.90;99.90
56542;DHT22;42438;53.174;6.730;2023-02-23T04:22:23;7.10;99.90
56542;DHT22;42438;53.174;6.730;2023-02-23T04:24:54;7.20;99.90
56542;DHT22;42438;53.174;6.730;2023-02-23T04:27:25;6.90;99.90
56542;DHT22;42438;53.174;6.730;2023-02-23T04:29:56;7.20;99.90
56542;DHT22;42438;53.174;6.730;2023-02-23T04:32:27;7.20;99.90
56542;DHT22;42438;53.174;6.730;2023-02-23T04:34:57;6.90;99.90
56542;DHT22;42438;53.174;6.730;2023-02-23T04:37:28;6.90;99.90
56542;DHT22;42438;53.174;6.730;2023-02-23T04:40:00;6.80;99.90
56542;DHT22;42438;53.174;6.730;2023-02-23T04:42:30;6.90;99.90
56542;DHT22;42438;53.174;6.730;2023-02-23T04:45:01;6.90;99.90
56542;DHT22;42438;53.174;6.730;2023-02-23T04:47:32;7.00;99.90
56542;DHT22;42438;53.174;6.730;2023-02-23T04:50:03;6.90;99.90
56542;DHT22;42438;53.174;6.730;2023-02-23T04:52:34;6.90;99.90
56542;DHT22;42438;53.174;6.730;2023-02-23T04:55:08;7.10;99.90
56542;DHT22;42438;53.174;6.730;2023-02-23T04:57:42;6.80;99.90
56542;DHT22;42438;53.174;6.730;2023-02-23T05:00:14;6.90;99.90
56542;DHT22;42438;53.174;6.730;2023-02-23T05:02:45;6.90;99.90
56542;DHT22;42438;53.174;6.730;2023-02-23T05:05:15;7.10;99.90
56542;DHT22;42438;53.174;6.730;2023-02-23T05:07:46;6.90;99.90
56542;DHT22;42438;53.174;6.730;2023-02-23T05:10:17;7.10;99.90
56542;DHT22;42438;53.174;6.730;2023-02-23T05:12:48;7.00;99.90
56542;DHT22;42438;53.174;6.730;2023-02-23T05:15:18;6.80;99.90
56542;DHT22;42438;53.174;6.730;2023-02-23T05:17:49;6.80;99.90
56542;DHT22;42438;53.174;6.730;2023-02-23T05:20:20;6.90;99.90
56542;DHT22;42438;53.174;6.730;2023-02-23T05:22:51;7.10;99.90
56542;DHT22;42438;53.174;6.730;2023-02-23T05:25:21;7.20;99.90
56542;DHT22;42438;53.174;6.730;2023-02-23T05:27:52;6.80;99.90
56542;DHT22;42438;53.174;6.730;2023-02-23T05:30:22;6.80;99.90
56542;DHT22;42438;53.174;6.730;2023-02-23T05:32:53;6.90;99.90
56542;DHT22;42438;53.174;6.730;2023-02-23T05:35:24;7.00;99.90
56542;DHT22;42438;53.174;6.730;2023-02-23T05:37:54;7.10;99.90
56542;DHT22;42438;53.174;6.730;2023-02-23T05:40:25;7.10;99.90
56542;DHT22;42438;53.174;6.730;2023-02-23T05:42:59;7.00;99.90
56542;DHT22;42438;53.174;6.730;2023-02-23T05:45:29;7.10;99.90
56542;DHT22;42438;53.174;6.730;2023-02-23T05:48:00;7.00;99.90
56542;DHT22;42438;53.174;6.730;2023-02-23T05:50:31;7.10;99.90
56542;DHT22;42438;53.174;6.730;2023-02-23T05:53:02;7.00;99.90
56542;DHT22;42438;53.174;6.730;2023-02-23T05:55:34;6.80;99.90
56542;DHT22;42438;53.174;6.730;2023-02-23T05:58:05;6.90;99.90
56542;DHT22;42438;53.174;6.730;2023-02-23T06:00:36;6.80;99.90
56542;DHT22;42438;53.174;6.730;2023-02-23T06:03:07;6.80;99.90
56542;DHT22;42438;53.174;6.730;2023-02-23T06:05:38;7.00;99.90
56542;DHT22;42438;53.174;6.730;2023-02-23T06:08:08;7.10;99.90
56542;DHT22;42438;53.174;6.730;2023-02-23T06:10:39;6.70;99.90
56542;DHT22;42438;53.174;6.730;2023-02-23T06:13:10;6.70;99.90
56542;DHT22;42438;53.174;6.730;2023-02-23T06:15:42;7.00;99.90
56542;DHT22;42438;53.174;6.730;2023-02-23T06:18:13;7.00;99.90
56542;DHT22;42438;53.174;6.730;2023-02-23T06:20:44;6.80;99.90
56542;DHT22;42438;53.174;6.730;2023-02-23T06:23:16;6.70;99.90
56542;DHT22;42438;53.174;6.730;2023-02-23T06:25:46;6.70;99.90
56542;DHT22;42438;53.174;6.730;2023-02-23T06:28:17;6.70;99.90
56542;DHT22;42438;53.174;6.730;2023-02-23T06:30:53;6.80;99.90
56542;DHT22;42438;53.174;6.730;2023-02-23T06:33:24;6.70;99.90
56542;DHT22;42438;53.174;6.730;2023-02-23T06:35:55;7.10;99.90
56542;DHT22;42438;53.174;6.730;2023-02-23T06:38:26;7.00;99.90
56542;DHT22;42438;53.174;6.730;2023-02-23T06:40:57;6.90;99.90
56542;DHT22;42438;53.174;6.730;2023-02-23T06:43:28;6.70;99.90
56542;DHT22;42438;53.174;6.730;2023-02-23T06:45:59;7.10;99.90
56542;DHT22;42438;53.174;6.730;2023-02-23T06:48:29;7.00;99.90
56542;DHT22;42438;53.174;6.730;2023-02-23T06:51:00;6.70;99.90
56542;DHT22;42438;53.174;6.730;2023-02-23T06:53:30;6.90;99.90
56542;DHT22;42438;53.174;6.730;2023-02-23T06:56:02;7.10;99.90
56542;DHT22;42438;53.174;6.730;2023-02-23T06:58:33;6.70;99.90
56542;DHT22;42438;53.174;6.730;2023-02-23T07:01:04;6.80;99.90
56542;DHT22;42438;53.174;6.730;2023-02-23T07:03:34;6.70;99.90
56542;DHT22;42438;53.174;6.730;2023-02-23T07:06:05;6.70;99.90
56542;DHT22;42438;53.174;6.730;2023-02-23T07:08:36;6.90;99.90
56542;DHT22;42438;53.174;6.730;2023-02-23T07:11:13;6.70;99.90
56542;DHT22;42438;53.174;6.730;2023-02-23T07:13:45;7.00;99.90
56542;DHT22;42438;53.174;6.730;2023-02-23T07:16:15;6.80;99.90
56542;DHT22;42438;53.174;6.730;2023-02-23T07:18:46;6.70;99.90
56542;DHT22;42438;53.174;6.730;2023-02-23T07:21:17;6.90;99.90
56542;DHT22;42438;53.174;6.730;2023-02-23T07:23:48;7.00;99.90
56542;DHT22;42438;53.174;6.730;2023-02-23T07:26:19;6.70;99.90
56542;DHT22;42438;53.174;6.730;2023-02-23T07:28:50;6.80;99.90
56542;DHT22;42438;53.174;6.730;2023-02-23T07:31:20;6.70;99.90
56542;DHT22;42438;53.174;6.730;2023-02-23T07:33:52;7.00;99.90
56542;DHT22;42438;53.174;6.730;2023-02-23T07:36:24;7.00;99.90
56542;DHT22;42438;53.174;6.730;2023-02-23T07:38:54;6.70;99.90
56542;DHT22;42438;53.174;6.730;2023-02-23T07:41:26;6.80;99.90
56542;DHT22;42438;53.174;6.730;2023-02-23T07:43:57;7.00;99.90
56542;DHT22;42438;53.174;6.730;2023-02-23T07:46:28;6.70;99.90
56542;DHT22;42438;53.174;6.730;2023-02-23T07:48:59;7.00;99.90
56542;DHT22;42438;53.174;6.730;2023-02-23T07:51:29;6.70;99.90
56542;DHT22;42438;53.174;6.730;2023-02-23T07:54:04;6.90;99.90
56542;DHT22;42438;53.174;6.730;2023-02-23T07:56:35;7.00;99.90
56542;DHT22;42438;53.174;6.730;2023-02-23T07:59:05;6.80;99.90
56542;DHT22;42438;53.174;6.730;2023-02-23T08:01:36;7.00;99.90
56542;DHT22;42438;53.174;6.730;2023-02-23T08:04:07;6.80;99.90
56542;DHT22;42438;53.174;6.730;2023-02-23T08:06:37;7.00;99.90
56542;DHT22;42438;53.174;6.730;2023-02-23T08:09:09;7.00;99.90
56542;DHT22;42438;53.174;6.730;2023-02-23T08:11:40;6.80;99.90
56542;DHT22;42438;53.174;6.730;2023-02-23T08:14:11;6.80;99.90
56542;DHT22;42438;53.174;6.730;2023-02-23T08:16:42;7.10;99.90
56542;DHT22;42438;53.174;6.730;2023-02-23T08:19:12;6.90;99.90
56542;DHT22;42438;53.174;6.730;2023-02-23T08:21:43;6.80;99.90
56542;DHT22;42438;53.174;6.730;2023-02-23T08:24:14;6.80;99.90
56542;DHT22;42438;53.174;6.730;2023-02-23T08:26:45;6.80;99.90
56542;DHT22;42438;53.174;6.730;2023-02-23T08:29:16;6.90;99.90
56542;DHT22;42438;53.174;6.730;2023-02-23T08:31:47;6.90;99.90
56542;DHT22;42438;53.174;6.730;2023-02-23T08:34:18;6.80;99.90
56542;DHT22;42438;53.174;6.730;2023-02-23T08:36:49;6.80;99.90
56542;DHT22;42438;53.174;6.730;2023-02-23T08:39:20;7.00;99.90
56542;DHT22;42438;53.174;6.730;2023-02-23T08:41:51;6.70;99.90
56542;DHT22;42438;53.174;6.730;2023-02-23T08:44:24;7.40;99.90
56542;DHT22;42438;53.174;6.730;2023-02-23T08:46:55;6.70;99.90
56542;DHT22;42438;53.174;6.730;2023-02-23T08:49:27;6.90;99.90
56542;DHT22;42438;53.174;6.730;2023-02-23T08:51:58;6.70;99.90
56542;DHT22;42438;53.174;6.730;2023-02-23T08:54:29;6.70;99.90
56542;DHT22;42438;53.174;6.730;2023-02-23T08:56:59;6.90;99.90
56542;DHT22;42438;53.174;6.730;2023-02-23T08:59:30;6.60;99.90
56542;DHT22;42438;53.174;6.730;2023-02-23T09:02:01;6.80;99.90
56542;DHT22;42438;53.174;6.730;2023-02-23T09:04:32;6.90;99.90
56542;DHT22;42438;53.174;6.730;2023-02-23T09:07:04;6.90;99.90
56542;DHT22;42438;53.174;6.730;2023-02-23T09:09:35;6.70;99.90
56542;DHT22;42438;53.174;6.730;2023-02-23T09:12:05;6.70;99.90
56542;DHT22;42438;53.174;6.730;2023-02-23T09:14:36;6.60;99.90
56542;DHT22;42438;53.174;6.730;2023-02-23T09:17:07;6.90;99.90
56542;DHT22;42438;53.174;6.730;2023-02-23T09:19:38;6.70;99.90
56542;DHT22;42438;53.174;6.730;2023-02-23T09:22:09;6.70;99.90
56542;DHT22;42438;53.174;6.730;2023-02-23T09:24:39;6.80;99.90
56542;DHT22;42438;53.174;6.730;2023-02-23T09:27:10;6.70;99.90
56542;DHT22;42438;53.174;6.730;2023-02-23T09:29:44;7.00;99.90
56542;DHT22;42438;53.174;6.730;2023-02-23T09:32:14;6.70;99.90
56542;DHT22;42438;53.174;6.730;2023-02-23T09:34:45;6.90;99.90
56542;DHT22;42438;53.174;6.730;2023-02-23T09:37:17;6.90;99.90
56542;DHT22;42438;53.174;6.730;2023-02-23T09:39:48;6.90;99.90
56542;DHT22;42438;53.174;6.730;2023-02-23T09:42:36;7.00;99.90
56542;DHT22;42438;53.174;6.730;2023-02-23T09:48:19;6.80;99.90
56542;DHT22;42438;53.174;6.730;2023-02-23T09:50:55;6.80;99.90
56542;DHT22;42438;53.174;6.730;2023-02-23T09:53:37;7.30;99.90
56542;DHT22;42438;53.174;6.730;2023-02-23T09:56:29;7.00;99.90
56542;DHT22;42438;53.174;6.730;2023-02-23T09:59:06;7.50;99.90
56542;DHT22;42438;53.174;6.730;2023-02-23T10:01:55;7.50;99.90
56542;DHT22;42438;53.174;6.730;2023-02-23T10:04:38;7.40;99.90
56542;DHT22;42438;53.174;6.730;2023-02-23T10:16:06;7.60;99.90
56542;DHT22;42438;53.174;6.730;2023-02-23T10:21:50;7.90;99.90
56542;DHT22;42438;53.174;6.730;2023-02-23T10:24:31;7.80;99.90
56542;DHT22;42438;53.174;6.730;2023-02-23T10:27:13;7.80;99.90
56542;DHT22;42438;53.174;6.730;2023-02-23T10:29:50;8.10;99.90
56542;DHT22;42438;53.174;6.730;2023-02-23T10:32:48;7.80;99.90
56542;DHT22;42438;53.174;6.730;2023-02-23T10:35:21;8.00;99.90
56542;DHT22;42438;53.174;6.730;2023-02-23T10:37:53;7.80;99.90
56542;DHT22;42438;53.174;6.730;2023-02-23T10:40:26;7.80;99.90
56542;DHT22;42438;53.174;6.730;2023-02-23T10:43:01;7.80;99.90
56542;DHT22;42438;53.174;6.730;2023-02-23T10:45:38;8.00;99.90
56542;DHT22;42438;53.174;6.730;2023-02-23T10:48:28;7.90;99.90
56542;DHT22;42438;53.174;6.730;2023-02-23T10:51:01;8.00;99.90
56542;DHT22;42438;53.174;6.730;2023-02-23T10:53:35;8.00;99.90
56542;DHT22;42438;53.174;6.730;2023-02-23T10:56:08;8.10;99.90
56542;DHT22;42438;53.174;6.730;2023-02-23T10:58:43;8.20;99.90
56542;DHT22;42438;53.174;6.730;2023-02-23T11:01:32;8.40;99.90
56542;DHT22;42438;53.174;6.730;2023-02-23T11:04:26;8.20;99.90
56542;DHT22;42438;53.174;6.730;2023-02-23T11:07:14;8.20;99.90
56542;DHT22;42438;53.174;6.730;2023-02-23T11:09:45;8.20;99.90
56542;DHT22;42438;53.174;6.730;2023-02-23T11:12:25;8.20;99.90
56542;DHT22;42438;53.174;6.730;2023-02-23T11:14:57;8.10;99.90
56542;DHT22;42438;53.174;6.730;2023-02-23T11:17:33;8.20;99.90
56542;DHT22;42438;53.174;6.730;2023-02-23T11:22:57;8.00;99.90
56542;DHT22;42438;53.174;6.730;2023-02-23T11:25:29;8.00;99.90
56542;DHT22;42438;53.174;6.730;2023-02-23T11:28:01;8.00;99.90
56542;DHT22;42438;53.174;6.730;2023-02-23T11:30:35;8.00;99.90
56542;DHT22;42438;53.174;6.730;2023-02-23T11:33:07;8.00;99.90
56542;DHT22;42438;53.174;6.730;2023-02-23T11:35:44;8.00;99.90
56542;DHT22;42438;53.174;6.730;2023-02-23T11:38:23;8.00;99.90
56542;DHT22;42438;53.174;6.730;2023-02-23T11:41:00;8.20;99.90
56542;DHT22;42438;53.174;6.730;2023-02-23T11:43:30;8.30;99.90
56542;DHT22;42438;53.174;6.730;2023-02-23T11:46:01;8.40;99.90
56542;DHT22;42438;53.174;6.730;2023-02-23T11:48:41;8.50;99.90
56542;DHT22;42438;53.174;6.730;2023-02-23T11:51:40;8.60;99.90
56542;DHT22;42438;53.174;6.730;2023-02-23T11:54:37;8.50;99.90
56542;DHT22;42438;53.174;6.730;2023-02-23T11:57:08;8.50;99.90
56542;DHT22;42438;53.174;6.730;2023-02-23T11:59:39;8.40;99.90
56542;DHT22;42438;53.174;6.730;2023-02-23T12:02:28;8.50;99.90
56542;DHT22;42438;53.174;6.730;2023-02-23T12:05:06;8.40;99.90
56542;DHT22;42438;53.174;6.730;2023-02-23T12:07:38;8.50;99.90
56542;DHT22;42438;53.174;6.730;2023-02-23T12:10:31;8.50;99.90
56542;DHT22;42438;53.174;6.730;2023-02-23T12:16:36;8.70;99.90
56542;DHT22;42438;53.174;6.730;2023-02-23T12:22:14;8.80;99.90
56542;DHT22;42438;53.174;6.730;2023-02-23T12:30:41;8.50;99.90
56542;DHT22;42438;53.174;6.730;2023-02-23T12:33:21;8.50;99.90
56542;DHT22;42438;53.174;6.730;2023-02-23T12:35:59;8.40;99.90
56542;DHT22;42438;53.174;6.730;2023-02-23T12:39:00;8.40;99.90
56542;DHT22;42438;53.174;6.730;2023-02-23T12:44:50;8.30;99.90
56542;DHT22;42438;53.174;6.730;2023-02-23T12:47:39;8.20;99.90
56542;DHT22;42438;53.174;6.730;2023-02-23T12:50:25;8.20;99.90
56542;DHT22;42438;53.174;6.730;2023-02-23T12:53:16;8.30;99.90
56542;DHT22;42438;53.174;6.730;2023-02-23T13:01:37;8.00;99.90
56542;DHT22;42438;53.174;6.730;2023-02-23T13:04:38;8.00;99.90
56542;DHT22;42438;53.174;6.730;2023-02-23T13:21:10;8.00;99.90
56542;DHT22;42438;53.174;6.730;2023-02-23T13:27:17;8.00;99.90
56542;DHT22;42438;53.174;6.730;2023-02-23T13:29:50;8.10;99.90
56542;DHT22;42438;53.174;6.730;2023-02-23T13:32:27;7.90;99.90
56542;DHT22;42438;53.174;6.730;2023-02-23T13:35:00;7.80;99.90
56542;DHT22;42438;53.174;6.730;2023-02-23T13:40:35;7.30;99.90
56542;DHT22;42438;53.174;6.730;2023-02-23T13:43:25;7.30;99.90
56542;DHT22;42438;53.174;6.730;2023-02-23T13:51:54;7.00;99.90
56542;DHT22;42438;53.174;6.730;2023-02-23T13:54:33;7.20;99.90
56542;DHT22;42438;53.174;6.730;2023-02-23T13:57:12;6.90;99.90
56542;DHT22;42438;53.174;6.730;2023-02-23T13:59:46;7.00;99.90
56542;DHT22;42438;53.174;6.730;2023-02-23T14:05:24;6.90;99.90
56542;DHT22;42438;53.174;6.730;2023-02-23T14:08:02;6.70;99.90
56542;DHT22;42438;53.174;6.730;2023-02-23T14:10:43;6.90;99.90
56542;DHT22;42438;53.174;6.730;2023-02-23T14:15:48;6.70;99.90
56542;DHT22;42438;53.174;6.730;2023-02-23T14:27:17;6.70;99.90
56542;DHT22;42438;53.174;6.730;2023-02-23T14:32:43;6.60;99.90
56542;DHT22;42438;53.174;6.730;2023-02-23T14:40:47;6.60;99.90
56542;DHT22;42438;53.174;6.730;2023-02-23T14:43:30;6.40;99.90
56542;DHT22;42438;53.174;6.730;2023-02-23T14:46:01;6.40;99.90
56542;DHT22;42438;53.174;6.730;2023-02-23T14:48:43;6.30;99.90
56542;DHT22;42438;53.174;6.730;2023-02-23T14:51:25;6.50;99.90
56542;DHT22;42438;53.174;6.730;2023-02-23T14:53:58;6.50;99.90
56542;DHT22;42438;53.174;6.730;2023-02-23T14:56:29;6.40;99.90
56542;DHT22;42438;53.174;6.730;2023-02-23T14:59:06;6.40;99.90
56542;DHT22;42438;53.174;6.730;2023-02-23T15:01:38;6.40;99.90
56542;DHT22;42438;53.174;6.730;2023-02-23T15:04:12;6.50;99.90
56542;DHT22;42438;53.174;6.730;2023-02-23T15:06:44;6.50;99.90
56542;DHT22;42438;53.174;6.730;2023-02-23T15:09:28;6.40;99.90
56542;DHT22;42438;53.174;6.730;2023-02-23T15:12:10;6.60;99.90
56542;DHT22;42438;53.174;6.730;2023-02-23T15:14:41;6.60;99.90
56542;DHT22;42438;53.174;6.730;2023-02-23T15:17:16;6.40;99.90
56542;DHT22;42438;53.174;6.730;2023-02-23T15:19:51;6.50;99.90
56542;DHT22;42438;53.174;6.730;2023-02-23T15:22:34;6.70;99.90
56542;DHT22;42438;53.174;6.730;2023-02-23T15:25:15;6.70;99.90
56542;DHT22;42438;53.174;6.730;2023-02-23T15:27:47;6.60;99.90
56542;DHT22;42438;53.174;6.730;2023-02-23T15:30:29;6.70;99.90
56542;DHT22;42438;53.174;6.730;2023-02-23T15:33:01;6.60;99.90
56542;DHT22;42438;53.174;6.730;2023-02-23T15:35:47;6.60;99.90
56542;DHT22;42438;53.174;6.730;2023-02-23T15:38:23;6.60;99.90
56542;DHT22;42438;53.174;6.730;2023-02-23T15:41:06;6.50;99.90
56542;DHT22;42438;53.174;6.730;2023-02-23T15:43:38;6.50;99.90
56542;DHT22;42438;53.174;6.730;2023-02-23T15:46:20;6.40;99.90
56542;DHT22;42438;53.174;6.730;2023-02-23T15:48:57;6.40;99.90
56542;DHT22;42438;53.174;6.730;2023-02-23T15:51:35;6.40;99.90
56542;DHT22;42438;53.174;6.730;2023-02-23T15:54:23;6.40;99.90
56542;DHT22;42438;53.174;6.730;2023-02-23T15:57:01;6.20;99.90
56542;DHT22;42438;53.174;6.730;2023-02-23T15:59:36;6.30;99.90
56542;DHT22;42438;53.174;6.730;2023-02-23T16:02:17;6.30;99.90
56542;DHT22;42438;53.174;6.730;2023-02-23T16:04:48;6.30;99.90
56542;DHT22;42438;53.174;6.730;2023-02-23T16:07:25;6.20;99.90
56542;DHT22;42438;53.174;6.730;2023-02-23T16:12:37;6.20;99.90
56542;DHT22;42438;53.174;6.730;2023-02-23T16:20:46;6.10;99.90
56542;DHT22;42438;53.174;6.730;2023-02-23T16:23:28;6.10;99.90
56542;DHT22;42438;53.174;6.730;2023-02-23T16:26:04;6.10;99.90
56542;DHT22;42438;53.174;6.730;2023-02-23T16:28:41;6.10;99.90
56542;DHT22;42438;53.174;6.730;2023-02-23T16:31:13;6.00;99.90
56542;DHT22;42438;53.174;6.730;2023-02-23T16:33:57;6.00;99.90
56542;DHT22;42438;53.174;6.730;2023-02-23T16:36:35;6.00;99.90
56542;DHT22;42438;53.174;6.730;2023-02-23T16:39:11;6.00;99.90
56542;DHT22;42438;53.174;6.730;2023-02-23T16:41:42;6.00;99.90
56542;DHT22;42438;53.174;6.730;2023-02-23T16:44:18;5.90;99.90
56542;DHT22;42438;53.174;6.730;2023-02-23T16:49:27;5.90;99.90
56542;DHT22;42438;53.174;6.730;2023-02-23T16:51:59;5.80;99.90
56542;DHT22;42438;53.174;6.730;2023-02-23T16:54:30;6.10;99.90
56542;DHT22;42438;53.174;6.730;2023-02-23T16:57:01;5.80;99.90
56542;DHT22;42438;53.174;6.730;2023-02-23T16:59:35;5.90;99.90
56542;DHT22;42438;53.174;6.730;2023-02-23T17:02:10;6.30;99.90
56542;DHT22;42438;53.174;6.730;2023-02-23T17:04:44;6.00;99.90
56542;DHT22;42438;53.174;6.730;2023-02-23T17:07:19;6.30;99.90
56542;DHT22;42438;53.174;6.730;2023-02-23T17:09:50;6.30;99.90
56542;DHT22;42438;53.174;6.730;2023-02-23T17:12:20;6.20;99.90
56542;DHT22;42438;53.174;6.730;2023-02-23T17:14:51;5.90;99.90
56542;DHT22;42438;53.174;6.730;2023-02-23T17:17:22;6.00;99.90
56542;DHT22;42438;53.174;6.730;2023-02-23T17:19:52;6.10;99.90
56542;DHT22;42438;53.174;6.730;2023-02-23T17:22:23;6.20;99.90
56542;DHT22;42438;53.174;6.730;2023-02-23T17:24:53;5.90;99.90
56542;DHT22;42438;53.174;6.730;2023-02-23T17:27:24;6.00;99.90
56542;DHT22;42438;53.174;6.730;2023-02-23T17:29:55;5.70;99.90
56542;DHT22;42438;53.174;6.730;2023-02-23T17:32:25;5.70;99.90
56542;DHT22;42438;53.174;6.730;2023-02-23T17:34:59;5.60;99.90
56542;DHT22;42438;53.174;6.730;2023-02-23T17:40:01;4.90;99.90
56542;DHT22;42438;53.174;6.730;2023-02-23T17:42:32;5.20;99.90
56542;DHT22;42438;53.174;6.730;2023-02-23T17:45:05;5.20;99.90
56542;DHT22;42438;53.174;6.730;2023-02-23T17:47:36;4.80;99.90
56542;DHT22;42438;53.174;6.730;2023-02-23T17:50:10;4.60;99.90
56542;DHT22;42438;53.174;6.730;2023-02-23T17:52:41;4.60;99.90
56542;DHT22;42438;53.174;6.730;2023-02-23T17:55:11;5.10;99.90
56542;DHT22;42438;53.174;6.730;2023-02-23T17:57:42;4.40;99.90
56542;DHT22;42438;53.174;6.730;2023-02-23T18:00:17;4.30;99.90
56542;DHT22;42438;53.174;6.730;2023-02-23T18:05:19;4.20;99.90
56542;DHT22;42438;53.174;6.730;2023-02-23T18:07:50;4.30;99.90
56542;DHT22;42438;53.174;6.730;2023-02-23T18:10:20;4.00;99.90
56542;DHT22;42438;53.174;6.730;2023-02-23T18:12:54;4.50;99.90
56542;DHT22;42438;53.174;6.730;2023-02-23T18:15:25;4.10;99.90
56542;DHT22;42438;53.174;6.730;2023-02-23T18:17:55;3.80;99.90
56542;DHT22;42438;53.174;6.730;2023-02-23T18:20:28;3.50;99.90
56542;DHT22;42438;53.174;6.730;2023-02-23T18:25:36;3.40;99.90
56542;DHT22;42438;53.174;6.730;2023-02-23T18:28:06;3.30;99.90
56542;DHT22;42438;53.174;6.730;2023-02-23T18:30:40;3.30;99.90
56542;DHT22;42438;53.174;6.730;2023-02-23T18:33:12;3.20;99.90
56542;DHT22;42438;53.174;6.730;2023-02-23T18:35:43;3.30;99.90
56542;DHT22;42438;53.174;6.730;2023-02-23T18:38:17;3.30;99.90
56542;DHT22;42438;53.174;6.730;2023-02-23T18:40:47;3.30;99.90
56542;DHT22;42438;53.174;6.730;2023-02-23T18:43:18;3.40;99.90
56542;DHT22;42438;53.174;6.730;2023-02-23T18:45:49;3.30;99.90
56542;DHT22;42438;53.174;6.730;2023-02-23T18:48:19;3.40;99.90
56542;DHT22;42438;53.174;6.730;2023-02-23T18:50:59;3.50;99.90
56542;DHT22;42438;53.174;6.730;2023-02-23T18:53:32;3.50;99.90
56542;DHT22;42438;53.174;6.730;2023-02-23T18:56:09;3.70;99.90
56542;DHT22;42438;53.174;6.730;2023-02-23T18:58:40;3.70;99.90
56542;DHT22;42438;53.174;6.730;2023-02-23T19:01:16;3.80;99.90
56542;DHT22;42438;53.174;6.730;2023-02-23T19:03:47;3.90;99.90
56542;DHT22;42438;53.174;6.730;2023-02-23T19:06:21;3.90;99.90